Time;durP1;ratioP1;P1;durP2;ratioP2;P2;SDS_P1;SDS_P2;PMS_P1;PMS_P2;Temp;Humidity;BMP_temperature;BMP_pressure;BME280_temperature;BME280_humidity;BME280_pressure;Samples;Min_cycle;Max_cycle;Signal;HPM_P1;HPM_P2
2021/07/21 00:00:08;;;;;;;;;;;22.90;71.20;23.00;99695.00;;;;345444;28;92030;-91
2021/07/21 00:00:25;;;;;;;;;;;22.90;71.20;22.90;99691.00;;;;344635;28;83409;-91
2021/07/21 00:00:42;;;;;;;;;;;22.90;71.20;22.90;99683.00;;;;346464;27;91398;-91
2021/07/21 00:00:54;;;;;;;;;;;22.90;71.20;22.90;99693.00;;;;346043;28;83281;-90
2021/07/21 00:01:07;;;;;;;;;;;22.90;71.30;22.90;99691.00;;;;346716;28;90246;-91
2021/07/21 00:01:19;;;;;;;;;;;22.90;71.30;22.80;99693.00;;;;345980;28;83503;-91
2021/07/21 00:01:32;;;;;;;;;;;22.90;71.30;22.80;99692.00;;;;345584;28;90973;-91
2021/07/21 00:01:44;;;;;;;;;;;22.90;71.60;22.80;99688.00;;;;344713;28;83426;-91
2021/07/21 00:01:56;;;;;;;;;;;22.90;71.30;22.90;99690.00;;;;345554;28;92968;-91
2021/07/21 00:02:08;;;;;;;;;;;22.90;71.20;22.80;99683.00;;;;345967;28;82444;-91
2021/07/21 00:02:21;;;;;;;;;;;22.90;71.00;22.80;99692.00;;;;347097;28;91603;-91
2021/07/21 00:02:33;;;;;;;;;;;22.90;71.20;22.80;99684.00;;;;346021;28;82503;-91
2021/07/21 00:02:45;;;;;;;;;;;22.90;71.20;22.90;99692.00;;;;346876;27;91276;-90
2021/07/21 00:02:57;;;;;;;;;;;22.90;71.20;22.90;99691.00;;;;347490;28;83457;-91
2021/07/21 00:03:10;;;;;;;;;;;22.80;71.10;22.90;99690.00;;;;346930;28;91529;-91
2021/07/21 00:03:22;;;;;;;;;;;22.90;71.10;23.00;99679.00;;;;345849;28;82524;-91
2021/07/21 00:03:34;;;;;;;;;;;22.90;71.70;23.00;99687.00;;;;347290;27;88704;-91
2021/07/21 00:03:46;;;;;;;;;;;22.80;71.00;23.00;99685.00;;;;346502;28;83418;-91
2021/07/21 00:03:58;;;;;;;;;;;22.90;71.00;23.00;99685.00;;;;348169;27;92910;-91
2021/07/21 00:04:10;;;;;;;;;;;22.80;71.00;22.90;99685.00;;;;345965;28;82499;-91
2021/07/21 00:04:39;;;;;;;;;;;22.90;71.00;22.90;99691.00;;;;348158;27;89468;-91
2021/07/21 00:04:51;;;;;;;;;;;22.90;71.00;22.80;99684.00;;;;347325;28;83375;-90
2021/07/21 00:05:11;;;;;;;;;;;22.90;71.00;22.80;99691.00;;;;347015;28;91471;-91
2021/07/21 00:05:23;;;;;;;;;;;22.90;71.10;22.80;99687.00;;;;345818;28;82526;-91
2021/07/21 00:05:36;;;;;;;;;;;22.80;71.00;22.90;99684.00;;;;345678;28;90974;-91
2021/07/21 00:05:48;;;;;;;;;;;22.90;71.20;22.90;99680.00;;;;348804;27;82481;-91
2021/07/21 00:06:00;;;;;;;;;;;22.90;71.30;22.90;99680.00;;;;348323;27;91711;-91
2021/07/21 00:06:13;;;;;;;;;;;22.80;71.20;22.90;99680.00;;;;347434;28;82424;-91
2021/07/21 00:06:25;;;;;;;;;;;22.80;71.20;22.90;99683.00;;;;348393;27;91237;-91
2021/07/21 00:06:37;;;;;;;;;;;22.80;71.20;22.90;99684.00;;;;345704;28;83589;-91
2021/07/21 00:06:48;;;;;;;;;;;22.80;71.30;22.90;99683.00;;;;345598;28;90122;-91
2021/07/21 00:07:00;;;;;;;;;;;22.90;71.30;22.90;99680.00;;;;344618;28;83427;-91
2021/07/21 00:07:13;;;;;;;;;;;22.80;71.30;22.90;99681.00;;;;347013;28;90946;-91
2021/07/21 00:07:25;;;;;;;;;;;22.90;71.20;23.00;99689.00;;;;347303;28;83312;-91
2021/07/21 00:07:37;;;;;;;;;;;22.80;71.00;22.80;99678.00;;;;346896;28;90596;-91
2021/07/21 00:07:49;;;;;;;;;;;22.80;71.00;22.80;99677.00;;;;347403;28;82706;-91
2021/07/21 00:08:01;;;;;;;;;;;22.90;70.90;22.80;99677.00;;;;344178;28;90528;-91
2021/07/21 00:08:13;;;;;;;;;;;22.80;70.90;22.80;99680.00;;;;344303;28;82481;-91
2021/07/21 00:08:25;;;;;;;;;;;22.80;71.00;22.90;99682.00;;;;345592;28;90763;-91
2021/07/21 00:08:37;;;;;;;;;;;22.80;70.90;22.90;99684.00;;;;344598;28;83593;-91
2021/07/21 00:08:49;;;;;;;;;;;22.80;70.80;22.90;99680.00;;;;344324;28;89841;-91
2021/07/21 00:09:01;;;;;;;;;;;22.80;70.90;22.90;99682.00;;;;345941;28;83388;-91
2021/07/21 00:09:13;;;;;;;;;;;22.80;71.00;22.80;99676.00;;;;344135;28;91641;-91
2021/07/21 00:09:25;;;;;;;;;;;22.80;70.90;22.90;99682.00;;;;344556;28;83407;-91
2021/07/21 00:09:36;;;;;;;;;;;22.80;71.00;22.90;99684.00;;;;346519;28;91528;-91
2021/07/21 00:09:50;;;;;;;;;;;22.80;70.80;22.90;99681.00;;;;346904;28;83362;-91
2021/07/21 00:10:04;;;;;;;;;;;22.80;70.90;22.90;99685.00;;;;344136;28;90443;-91
2021/07/21 00:10:17;;;;;;;;;;;22.80;71.10;22.90;99672.00;;;;338969;28;84130;-91
2021/07/21 00:10:31;;;;;;;;;;;22.90;71.30;22.90;99679.00;;;;335915;28;92440;-91
2021/07/21 00:10:46;;;;;;;;;;;22.90;71.20;22.90;99681.00;;;;338939;28;83545;-91
2021/07/21 00:13:35;;;;;;;;;;;22.80;70.90;22.90;99680.00;;;;340388;28;83420;-91
2021/07/21 00:13:47;;;;;;;;;;;22.90;70.90;22.90;99678.00;;;;338654;28;91537;-91
2021/07/21 00:14:02;;;;;;;;;;;22.80;70.60;22.90;99681.00;;;;341593;28;83444;-91
2021/07/21 00:14:20;;;;;;;;;;;22.90;70.70;22.90;99684.00;;;;341219;28;91907;-91
2021/07/21 00:14:32;;;;;;;;;;;22.90;70.60;22.90;99676.00;;;;337735;28;83345;-91
2021/07/21 00:14:44;;;;;;;;;;;22.80;70.50;22.90;99675.00;;;;340033;28;90640;-91
2021/07/21 00:14:56;;;;;;;;;;;22.80;70.70;22.90;99682.00;;;;338993;28;83468;-91
2021/07/21 00:15:08;;;;;;;;;;;22.80;70.80;22.90;99676.00;;;;337247;28;90536;-91
2021/07/21 00:15:20;;;;;;;;;;;22.90;70.90;23.00;99677.00;;;;339975;28;82639;-91
2021/07/21 00:15:34;;;;;;;;;;;22.80;70.90;22.80;99675.00;;;;338845;28;91498;-91
2021/07/21 00:16:07;;;;;;;;;;;22.90;70.80;22.90;99679.00;;;;340318;28;85561;-91
2021/07/21 00:16:25;;;;;;;;;;;22.90;70.80;22.90;99682.00;;;;340019;28;90732;-91
2021/07/21 00:16:39;;;;;;;;;;;22.90;70.80;23.00;99681.00;;;;339992;28;82519;-90
2021/07/21 00:16:55;;;;;;;;;;;22.80;70.60;22.80;99673.00;;;;338514;28;92493;-90
2021/07/21 00:17:18;;;;;;;;;;;22.90;70.70;22.90;99688.00;;;;339012;28;83389;-91
2021/07/21 00:17:33;;;;;;;;;;;22.90;70.60;22.90;99687.00;;;;338576;28;92656;-92
2021/07/21 00:17:46;;;;;;;;;;;22.80;70.50;22.90;99679.00;;;;341623;28;82560;-91
2021/07/21 00:18:00;;;;;;;;;;;22.80;70.90;22.80;99672.00;;;;340002;28;89146;-91
2021/07/21 00:18:21;;;;;;;;;;;22.80;70.60;22.80;99684.00;;;;337849;28;83400;-92
2021/07/21 00:18:37;;;;;;;;;;;22.90;70.60;22.90;99682.00;;;;342269;27;91907;-91
2021/07/21 00:18:52;;;;;;;;;;;22.90;70.40;22.90;99679.00;;;;337923;28;83456;-91
2021/07/21 00:20:05;;;;;;;;;;;22.90;70.50;22.90;99676.00;;;;340036;28;90484;-91
2021/07/21 00:20:09;;;;;;;;;;;22.80;70.60;22.90;99683.00;;;;339917;28;92203;-91
2021/07/21 00:20:21;;;;;;;;;;;22.80;70.70;22.90;99683.00;;;;340338;28;83436;-91
2021/07/21 00:20:33;;;;;;;;;;;22.80;70.60;22.90;99684.00;;;;340022;28;90736;-91
2021/07/21 00:20:47;;;;;;;;;;;22.80;70.50;22.80;99683.00;;;;341879;28;83430;-91
2021/07/21 00:20:59;;;;;;;;;;;22.80;70.40;22.80;99687.00;;;;340168;28;91220;-90
2021/07/21 00:21:12;;;;;;;;;;;22.80;70.40;22.80;99687.00;;;;340519;28;83461;-91
2021/07/21 00:21:25;;;;;;;;;;;22.80;70.30;22.80;99682.00;;;;338785;28;91828;-91
2021/07/21 00:21:37;;;;;;;;;;;22.80;70.20;22.80;99685.00;;;;340978;28;82533;-91
2021/07/21 00:21:48;;;;;;;;;;;22.80;70.40;22.80;99681.00;;;;339059;28;92226;-91
2021/07/21 00:22:00;;;;;;;;;;;22.80;70.40;22.70;99680.00;;;;337728;28;82525;-90
2021/07/21 00:22:12;;;;;;;;;;;22.80;70.30;22.70;99681.00;;;;338713;28;91958;-91
2021/07/21 00:22:25;;;;;;;;;;;22.80;70.30;22.70;99684.00;;;;339204;28;84421;-91
2021/07/21 00:22:42;;;;;;;;;;;22.80;70.30;22.70;99686.00;;;;337377;28;90481;-91
2021/07/21 00:22:54;;;;;;;;;;;22.80;70.30;22.80;99676.00;;;;337946;28;83473;-91
2021/07/21 00:23:06;;;;;;;;;;;22.80;70.20;22.80;99683.00;;;;338545;28;91731;-91
2021/07/21 00:23:18;;;;;;;;;;;22.80;70.20;22.80;99688.00;;;;339012;28;83410;-91
2021/07/21 00:23:30;;;;;;;;;;;22.80;70.10;22.80;99686.00;;;;338851;28;89148;-91
2021/07/21 00:23:42;;;;;;;;;;;22.70;70.10;22.80;99685.00;;;;340568;28;83344;-91
2021/07/21 00:23:54;;;;;;;;;;;22.80;70.20;22.70;99682.00;;;;338761;28;91288;-92
2021/07/21 00:24:06;;;;;;;;;;;22.70;70.30;22.70;99681.00;;;;340523;28;83409;-91
2021/07/21 00:24:18;;;;;;;;;;;22.80;70.30;22.80;99682.00;;;;341316;28;91952;-91
2021/07/21 00:24:30;;;;;;;;;;;22.70;70.30;22.80;99692.00;;;;342420;28;83546;-91
2021/07/21 00:24:42;;;;;;;;;;;22.70;70.30;22.70;99683.00;;;;344193;28;91634;-91
2021/07/21 00:24:54;;;;;;;;;;;22.80;70.30;22.70;99686.00;;;;340493;28;83439;-91
2021/07/21 00:25:08;;;;;;;;;;;22.80;70.20;22.70;99679.00;;;;337544;28;90259;-92
2021/07/21 00:25:20;;;;;;;;;;;22.70;70.20;22.60;99685.00;;;;339142;28;83529;-91
2021/07/21 00:25:32;;;;;;;;;;;22.70;70.40;22.70;99679.00;;;;338804;28;91411;-90
2021/07/21 00:25:44;;;;;;;;;;;22.70;70.30;22.70;99684.00;;;;339243;28;82375;-91
2021/07/21 00:25:56;;;;;;;;;;;22.70;70.40;22.70;99681.00;;;;337495;28;90598;-91
2021/07/21 00:26:08;;;;;;;;;;;22.70;70.60;22.80;99678.00;;;;339183;28;82555;-91
2021/07/21 00:26:20;;;;;;;;;;;22.70;70.60;22.80;99680.00;;;;338599;28;91373;-91
2021/07/21 00:26:32;;;;;;;;;;;22.70;70.70;22.70;99675.00;;;;338996;28;82626;-91
2021/07/21 00:26:44;;;;;;;;;;;22.70;70.60;22.70;99678.00;;;;340083;28;90336;-90
2021/07/21 00:26:55;;;;;;;;;;;22.70;70.50;22.80;99679.00;;;;341823;28;83414;-91
2021/07/21 00:27:10;;;;;;;;;;;22.70;70.50;22.80;99681.00;;;;341496;28;90775;-90
2021/07/21 00:27:23;;;;;;;;;;;22.70;70.50;22.70;99683.00;;;;340560;28;83421;-91
2021/07/21 00:27:35;;;;;;;;;;;22.70;70.50;22.80;99682.00;;;;343316;27;90251;-91
2021/07/21 00:27:47;;;;;;;;;;;22.70;70.50;22.80;99682.00;;;;343788;28;82553;-91
2021/07/21 00:27:59;;;;;;;;;;;22.70;70.60;22.70;99684.00;;;;341302;28;91443;-91
2021/07/21 00:28:11;;;;;;;;;;;22.70;70.60;22.70;99688.00;;;;339152;28;83435;-90
2021/07/21 00:28:23;;;;;;;;;;;22.70;70.40;22.70;99684.00;;;;338719;28;93529;-90
2021/07/21 00:28:38;;;;;;;;;;;22.70;70.80;22.70;99690.00;;;;338435;28;83586;-91
2021/07/21 00:28:50;;;;;;;;;;;22.70;70.10;22.60;99686.00;;;;340098;28;91461;-91
2021/07/21 00:29:02;;;;;;;;;;;22.70;70.30;22.70;99685.00;;;;339226;28;83366;-91
2021/07/21 00:29:14;;;;;;;;;;;22.70;70.40;22.70;99683.00;;;;337209;28;91394;-91
2021/07/21 00:29:26;;;;;;;;;;;22.70;70.40;22.70;99688.00;;;;340497;28;83434;-91
2021/07/21 00:29:37;;;;;;;;;;;22.60;70.20;22.70;99683.00;;;;340085;28;90880;-91
2021/07/21 00:29:50;;;;;;;;;;;22.70;70.20;22.70;99689.00;;;;340550;28;83402;-91
2021/07/21 00:30:07;;;;;;;;;;;22.60;70.10;22.70;99690.00;;;;341514;28;90658;-90
2021/07/21 00:30:19;;;;;;;;;;;22.70;70.40;22.70;99684.00;;;;339184;28;83449;-91
2021/07/21 00:30:31;;;;;;;;;;;22.70;70.50;22.70;99681.00;;;;339096;28;92037;-91
2021/07/21 00:30:43;;;;;;;;;;;22.70;70.50;22.70;99682.00;;;;340281;28;83359;-91
2021/07/21 00:30:55;;;;;;;;;;;22.70;70.40;22.70;99683.00;;;;344411;28;91370;-91
2021/07/21 00:31:08;;;;;;;;;;;22.70;70.40;22.70;99689.00;;;;341039;28;83359;-91
2021/07/21 00:31:19;;;;;;;;;;;22.70;70.50;22.60;99688.00;;;;339986;28;91437;-91
2021/07/21 00:31:31;;;;;;;;;;;22.70;70.40;22.60;99688.00;;;;336726;28;83392;-91
2021/07/21 00:31:43;;;;;;;;;;;22.60;70.40;22.70;99686.00;;;;337497;28;91735;-91
2021/07/21 00:31:55;;;;;;;;;;;22.60;70.50;22.50;99697.00;;;;340479;28;83521;-91
2021/07/21 00:32:07;;;;;;;;;;;22.60;70.20;22.50;99687.00;;;;338795;28;91425;-91
2021/07/21 00:32:20;;;;;;;;;;;22.60;70.40;22.60;99692.00;;;;339040;28;83499;-91
2021/07/21 00:32:32;;;;;;;;;;;22.60;71.10;22.60;99690.00;;;;337064;28;91810;-91
2021/07/21 00:32:43;;;;;;;;;;;22.60;70.40;22.60;99690.00;;;;343460;28;82503;-91
2021/07/21 00:32:55;;;;;;;;;;;22.60;70.30;22.60;99689.00;;;;344308;28;91450;-90
2021/07/21 00:33:07;;;;;;;;;;;22.60;70.40;22.60;99686.00;;;;339208;28;82496;-91
2021/07/21 00:33:19;;;;;;;;;;;22.60;70.40;22.60;99689.00;;;;337318;28;92295;-91
2021/07/21 00:33:31;;;;;;;;;;;22.50;70.40;22.60;99692.00;;;;340797;28;83346;-91
2021/07/21 00:33:45;;;;;;;;;;;22.60;70.50;22.60;99682.00;;;;344458;28;90786;-90
2021/07/21 00:33:57;;;;;;;;;;;22.60;70.50;22.50;99687.00;;;;341869;28;82527;-91
2021/07/21 00:34:10;;;;;;;;;;;22.60;70.60;22.50;99694.00;;;;338851;28;90368;-89
2021/07/21 00:34:22;;;;;;;;;;;22.50;70.60;22.50;99688.00;;;;339207;28;83500;-91
2021/07/21 00:34:34;;;;;;;;;;;22.60;70.60;22.60;99686.00;;;;341933;28;91633;-91
2021/07/21 00:34:46;;;;;;;;;;;22.50;70.80;22.50;99684.00;;;;339135;28;82474;-91
2021/07/21 00:34:57;;;;;;;;;;;22.50;70.80;22.60;99695.00;;;;338732;28;91575;-91
2021/07/21 00:35:13;;;;;;;;;;;22.50;70.80;22.60;99691.00;;;;339187;28;83381;-91
2021/07/21 00:35:25;;;;;;;;;;;22.50;70.80;22.60;99690.00;;;;339984;28;89181;-91
2021/07/21 00:35:37;;;;;;;;;;;22.60;70.70;22.60;99694.00;;;;339022;28;82537;-92
2021/07/21 00:35:49;;;;;;;;;;;22.50;70.60;22.60;99682.00;;;;340044;28;91895;-91
2021/07/21 00:36:01;;;;;;;;;;;22.60;70.60;22.60;99685.00;;;;340514;28;82489;-91
2021/07/21 00:36:13;;;;;;;;;;;22.50;70.60;22.60;99685.00;;;;340122;28;90550;-91
2021/07/21 00:36:26;;;;;;;;;;;22.50;70.60;22.60;99681.00;;;;340497;28;83406;-91
2021/07/21 00:36:38;;;;;;;;;;;22.50;70.70;22.60;99685.00;;;;343768;27;92371;-91
2021/07/21 00:36:50;;;;;;;;;;;22.60;70.60;22.70;99687.00;;;;345069;28;82585;-91
2021/07/21 00:37:02;;;;;;;;;;;22.60;70.60;22.60;99684.00;;;;342485;28;91780;-91
2021/07/21 00:37:14;;;;;;;;;;;22.50;70.80;22.60;99684.00;;;;337810;28;83428;-91
2021/07/21 00:37:25;;;;;;;;;;;22.60;70.70;22.60;99689.00;;;;337353;28;91043;-91
2021/07/21 00:37:38;;;;;;;;;;;22.50;70.50;22.60;99681.00;;;;341806;28;82584;-91
2021/07/21 00:37:49;;;;;;;;;;;22.60;70.60;22.60;99682.00;;;;338783;28;90672;-91
2021/07/21 00:38:02;;;;;;;;;;;22.60;70.40;22.60;99691.00;;;;340457;28;82606;-91
2021/07/21 00:38:14;;;;;;;;;;;22.60;70.40;22.60;99683.00;;;;338807;28;90806;-90
2021/07/21 00:38:25;;;;;;;;;;;22.60;70.50;22.60;99683.00;;;;340566;28;82504;-91
2021/07/21 00:38:37;;;;;;;;;;;22.60;70.50;22.60;99684.00;;;;339918;28;92159;-91
2021/07/21 00:38:49;;;;;;;;;;;22.60;70.60;22.60;99691.00;;;;340478;28;82633;-91
2021/07/21 00:39:01;;;;;;;;;;;22.50;70.50;22.50;99685.00;;;;341484;28;91254;-91
2021/07/21 00:39:13;;;;;;;;;;;22.60;70.50;22.60;99687.00;;;;340538;28;83384;-91
2021/07/21 00:39:24;;;;;;;;;;;22.50;70.50;22.60;99688.00;;;;338499;28;91601;-90
2021/07/21 00:39:36;;;;;;;;;;;22.50;70.60;22.60;99687.00;;;;341587;28;83534;-91
2021/07/21 00:39:48;;;;;;;;;;;22.50;70.50;22.50;99686.00;;;;338641;28;90528;-91
2021/07/21 00:40:00;;;;;;;;;;;22.50;70.60;22.50;99689.00;;;;339108;28;83456;-91
2021/07/21 00:40:13;;;;;;;;;;;22.50;70.60;22.60;99692.00;;;;338898;28;88042;-91
2021/07/21 00:40:25;;;;;;;;;;;22.50;70.70;22.50;99688.00;;;;339245;28;82523;-91
2021/07/21 00:40:37;;;;;;;;;;;22.50;70.70;22.50;99683.00;;;;337231;28;92598;-91
2021/07/21 00:40:50;;;;;;;;;;;22.50;70.70;22.60;99682.00;;;;339200;28;83391;-91
2021/07/21 00:41:02;;;;;;;;;;;22.50;70.60;22.50;99678.00;;;;341476;28;91677;-90
2021/07/21 00:41:14;;;;;;;;;;;22.50;70.70;22.50;99686.00;;;;344863;28;83377;-91
2021/07/21 00:41:26;;;;;;;;;;;22.50;70.70;22.60;99686.00;;;;345627;28;90390;-91
2021/07/21 00:41:38;;;;;;;;;;;22.50;70.70;22.60;99688.00;;;;341870;28;83408;-90
2021/07/21 00:41:50;;;;;;;;;;;22.50;70.60;22.60;99675.00;;;;340052;28;92179;-91
2021/07/21 00:42:04;;;;;;;;;;;22.50;70.70;22.60;99687.00;;;;339164;28;84028;-91
2021/07/21 00:42:16;;;;;;;;;;;22.50;70.60;22.40;99684.00;;;;337577;28;91964;-90
2021/07/21 00:42:28;;;;;;;;;;;22.50;70.50;22.30;99684.00;;;;339010;28;83379;-90
2021/07/21 00:42:39;;;;;;;;;;;22.50;70.50;22.30;99689.00;;;;342642;28;94374;-91
2021/07/21 00:42:52;;;;;;;;;;;22.50;70.80;22.30;99687.00;;;;347454;28;83440;-90
2021/07/21 00:43:04;;;;;;;;;;;22.50;70.80;22.40;99687.00;;;;339907;28;91767;-91
2021/07/21 00:43:15;;;;;;;;;;;22.50;70.80;22.40;99689.00;;;;337849;28;82523;-90
2021/07/21 00:43:29;;;;;;;;;;;22.50;70.80;22.50;99685.00;;;;338417;28;90184;-91
2021/07/21 00:43:40;;;;;;;;;;;22.40;70.80;22.50;99691.00;;;;337805;28;83459;-91
2021/07/21 00:43:52;;;;;;;;;;;22.40;71.00;22.40;99688.00;;;;338733;28;90586;-91
2021/07/21 00:44:04;;;;;;;;;;;22.40;70.90;22.30;99686.00;;;;339183;28;82486;-91
2021/07/21 00:44:16;;;;;;;;;;;22.40;70.70;22.30;99696.00;;;;340143;28;91366;-91
2021/07/21 00:44:28;;;;;;;;;;;22.40;70.70;22.40;99684.00;;;;340535;28;83506;-91
2021/07/21 00:44:40;;;;;;;;;;;22.40;70.80;22.40;99691.00;;;;340017;28;91349;-91
2021/07/21 00:44:53;;;;;;;;;;;22.40;70.80;22.40;99684.00;;;;339202;28;83231;-91
2021/07/21 00:45:06;;;;;;;;;;;22.40;71.00;22.40;99692.00;;;;337504;28;90611;-91
2021/07/21 00:45:17;;;;;;;;;;;22.40;71.30;22.50;99688.00;;;;337708;28;83585;-90
2021/07/21 00:45:29;;;;;;;;;;;22.40;71.30;22.50;99688.00;;;;338829;28;91364;-91
2021/07/21 00:45:41;;;;;;;;;;;22.40;71.20;22.50;99688.00;;;;344182;28;82558;-91
2021/07/21 00:45:53;;;;;;;;;;;22.40;71.10;22.40;99685.00;;;;339984;28;90326;-91
2021/07/21 00:46:05;;;;;;;;;;;22.40;71.10;22.50;99691.00;;;;340136;28;82470;-91
2021/07/21 00:46:17;;;;;;;;;;;22.40;71.10;22.50;99682.00;;;;338848;28;90645;-91
2021/07/21 00:46:29;;;;;;;;;;;22.40;71.00;22.50;99687.00;;;;339174;28;83530;-92
2021/07/21 00:46:41;;;;;;;;;;;22.40;70.90;22.50;99688.00;;;;341121;28;91230;-91
2021/07/21 00:46:53;;;;;;;;;;;22.40;70.90;22.40;99691.00;;;;339082;28;83400;-90
2021/07/21 00:47:05;;;;;;;;;;;22.40;70.80;22.40;99688.00;;;;338823;28;91617;-91
2021/07/21 00:47:17;;;;;;;;;;;22.40;70.90;22.40;99688.00;;;;339175;28;83511;-91
2021/07/21 00:47:29;;;;;;;;;;;22.40;71.10;22.40;99688.00;;;;337413;28;90319;-90
2021/07/21 00:47:41;;;;;;;;;;;22.40;71.10;22.40;99688.00;;;;339198;28;83429;-91
2021/07/21 00:47:52;;;;;;;;;;;22.40;71.10;22.40;99688.00;;;;340105;28;90590;-91
2021/07/21 00:48:04;;;;;;;;;;;22.40;71.00;22.40;99687.00;;;;339166;28;83485;-91
2021/07/21 00:48:16;;;;;;;;;;;22.40;71.00;22.40;99688.00;;;;338847;28;90398;-91
2021/07/21 00:48:28;;;;;;;;;;;22.40;71.10;22.40;99688.00;;;;339284;28;83413;-90
2021/07/21 00:48:40;;;;;;;;;;;22.30;71.10;22.40;99683.00;;;;343809;28;93456;-91
2021/07/21 00:48:52;;;;;;;;;;;22.30;71.10;22.30;99684.00;;;;340506;28;83431;-91
2021/07/21 00:49:03;;;;;;;;;;;22.40;71.20;22.30;99685.00;;;;335480;28;91690;-91
2021/07/21 00:49:15;;;;;;;;;;;22.30;71.20;22.30;99680.00;;;;337884;28;82510;-91
2021/07/21 00:49:27;;;;;;;;;;;22.30;71.20;22.40;99690.00;;;;337404;28;91514;-91
2021/07/21 00:49:40;;;;;;;;;;;22.30;71.30;22.40;99685.00;;;;340558;28;83340;-91
2021/07/21 00:49:52;;;;;;;;;;;22.30;71.30;22.50;99689.00;;;;341345;28;91635;-91
2021/07/21 00:50:05;;;;;;;;;;;22.30;71.40;22.50;99685.00;;;;341838;28;82505;-91
2021/07/21 00:50:17;;;;;;;;;;;22.30;71.40;22.40;99691.00;;;;338833;28;90460;-91
2021/07/21 00:50:29;;;;;;;;;;;22.30;71.50;22.40;99687.00;;;;340538;28;83486;-91
2021/07/21 00:50:41;;;;;;;;;;;22.30;71.50;22.50;99684.00;;;;339650;28;92524;-91
2021/07/21 00:50:54;;;;;;;;;;;22.40;71.60;22.40;99688.00;;;;337862;28;82521;-91
2021/07/21 00:51:06;;;;;;;;;;;22.30;71.40;22.50;99683.00;;;;341429;28;90107;-91
2021/07/21 00:51:18;;;;;;;;;;;22.30;71.30;22.50;99687.00;;;;340583;28;82471;-91
2021/07/21 00:51:30;;;;;;;;;;;22.30;71.40;22.50;99692.00;;;;341118;28;91841;-90
2021/07/21 00:51:41;;;;;;;;;;;22.40;71.50;22.50;99691.00;;;;344446;28;82587;-91
2021/07/21 00:51:54;;;;;;;;;;;22.30;71.40;22.40;99688.00;;;;340027;28;92199;-91
2021/07/21 00:52:08;;;;;;;;;;;22.40;71.30;22.40;99687.00;;;;338990;28;83626;-90
2021/07/21 00:52:20;;;;;;;;;;;22.40;71.20;22.40;99685.00;;;;338781;28;89602;-90
2021/07/21 00:52:37;;;;;;;;;;;22.40;71.20;22.40;99690.00;;;;340407;28;83444;-91
2021/07/21 00:52:49;;;;;;;;;;;22.40;71.20;22.40;99688.00;;;;340084;28;91152;-91
2021/07/21 00:53:01;;;;;;;;;;;22.30;71.30;22.30;99690.00;;;;340546;28;82473;-91
2021/07/21 00:53:13;;;;;;;;;;;22.40;71.50;22.30;99690.00;;;;340017;28;92041;-91
2021/07/21 00:53:24;;;;;;;;;;;22.30;71.60;22.30;99685.00;;;;339022;28;83542;-91
2021/07/21 00:53:36;;;;;;;;;;;22.30;71.60;22.30;99684.00;;;;338592;28;90616;-91
2021/07/21 00:53:48;;;;;;;;;;;22.30;71.70;22.40;99692.00;;;;340553;28;82496;-91
2021/07/21 00:54:00;;;;;;;;;;;22.30;71.70;22.50;99691.00;;;;341365;28;90443;-91
2021/07/21 00:54:12;;;;;;;;;;;22.30;71.80;22.50;99690.00;;;;341915;28;82555;-91
2021/07/21 00:54:24;;;;;;;;;;;22.30;71.70;22.40;99687.00;;;;342807;28;91363;-91
2021/07/21 00:54:36;;;;;;;;;;;22.30;71.50;22.30;99680.00;;;;342765;28;82663;-91
2021/07/21 00:54:50;;;;;;;;;;;22.30;71.20;22.30;99690.00;;;;339740;28;92749;-91
2021/07/21 00:55:03;;;;;;;;;;;22.30;71.00;22.30;99694.00;;;;339729;28;82373;-91
2021/07/21 00:55:16;;;;;;;;;;;22.30;71.20;22.30;99686.00;;;;336068;28;90252;-91
2021/07/21 00:55:28;;;;;;;;;;;22.30;71.30;22.30;99689.00;;;;340498;28;83461;-91
2021/07/21 00:55:40;;;;;;;;;;;22.30;71.40;22.30;99684.00;;;;340132;28;90451;-91
2021/07/21 00:55:52;;;;;;;;;;;22.30;71.60;22.30;99690.00;;;;337776;28;82492;-90
2021/07/21 00:56:04;;;;;;;;;;;22.30;71.50;22.30;99687.00;;;;337443;28;91804;-90
2021/07/21 00:56:15;;;;;;;;;;;22.30;71.40;22.40;99688.00;;;;337856;28;83505;-91
2021/07/21 00:56:28;;;;;;;;;;;22.30;71.40;22.30;99687.00;;;;337096;28;90571;-91
2021/07/21 00:56:40;;;;;;;;;;;22.30;71.10;22.40;99686.00;;;;337696;28;83533;-91
2021/07/21 00:56:51;;;;;;;;;;;22.30;71.30;22.50;99691.00;;;;337403;28;92942;-91
2021/07/21 00:57:04;;;;;;;;;;;22.30;71.30;22.50;99688.00;;;;337857;28;82392;-91
2021/07/21 00:57:16;;;;;;;;;;;22.30;71.30;22.40;99682.00;;;;338668;28;91581;-91
2021/07/21 00:57:28;;;;;;;;;;;22.20;71.20;22.30;99682.00;;;;340628;28;83387;-91
2021/07/21 00:57:40;;;;;;;;;;;22.30;71.30;22.30;99684.00;;;;341340;28;91716;-91
2021/07/21 00:57:52;;;;;;;;;;;22.30;71.40;22.30;99688.00;;;;339054;28;82487;-91
2021/07/21 00:58:04;;;;;;;;;;;22.20;71.40;22.40;99686.00;;;;337414;28;90069;-90
2021/07/21 00:58:16;;;;;;;;;;;22.20;72.10;22.40;99687.00;;;;338981;28;82619;-91
2021/07/21 00:58:28;;;;;;;;;;;22.20;71.50;22.30;99688.00;;;;337488;28;91347;-91
2021/07/21 00:58:39;;;;;;;;;;;22.20;71.60;22.40;99690.00;;;;339084;28;83707;-91
2021/07/21 00:58:54;;;;;;;;;;;22.20;71.50;22.40;99690.00;;;;338707;28;92954;-91
2021/07/21 00:59:06;;;;;;;;;;;22.30;71.60;22.30;99684.00;;;;337852;28;83410;-91
2021/07/21 00:59:19;;;;;;;;;;;22.30;71.30;22.30;99684.00;;;;338554;28;91567;-91
2021/07/21 00:59:33;;;;;;;;;;;22.20;71.40;22.40;99686.00;;;;337717;28;83422;-91
2021/07/21 00:59:45;;;;;;;;;;;22.30;71.80;22.40;99697.00;;;;337525;28;89930;-91
2021/07/21 00:59:57;;;;;;;;;;;22.30;71.70;22.50;99687.00;;;;337814;28;83493;-91
2021/07/21 01:00:11;;;;;;;;;;;22.30;71.70;22.50;99692.00;;;;338718;28;91427;-91
2021/07/21 01:00:23;;;;;;;;;;;22.30;71.90;22.50;99687.00;;;;336566;28;83492;-91
2021/07/21 01:00:35;;;;;;;;;;;22.30;71.50;22.40;99682.00;;;;339533;28;90484;-91
2021/07/21 01:00:47;;;;;;;;;;;22.30;71.30;22.40;99687.00;;;;339265;28;83380;-91
2021/07/21 01:00:58;;;;;;;;;;;22.20;71.30;22.30;99687.00;;;;338702;28;91605;-91
2021/07/21 01:01:10;;;;;;;;;;;22.30;71.90;22.40;99683.00;;;;340557;28;83474;-91
2021/07/21 01:01:23;;;;;;;;;;;22.30;71.30;22.30;99689.00;;;;335957;28;91589;-91
2021/07/21 01:01:35;;;;;;;;;;;22.30;71.40;22.40;99686.00;;;;337918;28;82699;-91
2021/07/21 01:01:47;;;;;;;;;;;22.30;71.30;22.30;99682.00;;;;344378;28;92302;-91
2021/07/21 01:02:00;;;;;;;;;;;22.30;71.30;22.30;99676.00;;;;336478;28;83514;-91
2021/07/21 01:02:12;;;;;;;;;;;22.30;71.30;22.30;99684.00;;;;336176;28;90541;-90
2021/07/21 01:02:25;;;;;;;;;;;22.30;71.40;22.30;99682.00;;;;339249;28;82583;-91
2021/07/21 01:02:38;;;;;;;;;;;22.30;71.50;22.20;99689.00;;;;338331;28;91976;-91
2021/07/21 01:02:50;;;;;;;;;;;22.30;71.50;22.30;99688.00;;;;336568;28;83420;-91
2021/07/21 01:03:02;;;;;;;;;;;22.20;71.50;22.30;99689.00;;;;340155;28;91903;-91
2021/07/21 01:03:14;;;;;;;;;;;22.20;71.50;22.30;99690.00;;;;339140;28;83499;-90
2021/07/21 01:03:26;;;;;;;;;;;22.20;71.60;22.40;99691.00;;;;340135;28;91044;-91
2021/07/21 01:03:39;;;;;;;;;;;22.30;71.80;22.40;99688.00;;;;339709;28;83369;-91
2021/07/21 01:03:50;;;;;;;;;;;22.30;71.60;22.30;99687.00;;;;338820;28;90399;-91
2021/07/21 01:04:03;;;;;;;;;;;22.20;71.60;22.30;99686.00;;;;341714;28;83530;-91
2021/07/21 01:04:15;;;;;;;;;;;22.20;71.50;22.30;99690.00;;;;338796;28;90423;-91
2021/07/21 01:04:29;;;;;;;;;;;22.20;71.50;22.30;99689.00;;;;339224;28;83402;-91
2021/07/21 01:04:41;;;;;;;;;;;22.20;71.40;22.40;99682.00;;;;338732;28;89927;-91
2021/07/21 01:04:53;;;;;;;;;;;22.20;71.50;22.40;99687.00;;;;337829;28;83343;-91
2021/07/21 01:05:07;;;;;;;;;;;22.20;71.60;22.50;99687.00;;;;337362;28;92927;-91
2021/07/21 01:05:27;;;;;;;;;;;22.20;71.60;22.50;99684.00;;;;336524;28;83443;-91
2021/07/21 01:05:42;;;;;;;;;;;22.30;71.50;22.50;99684.00;;;;338777;28;91491;-91
2021/07/21 01:05:54;;;;;;;;;;;22.30;71.60;22.50;99685.00;;;;336533;28;82273;-91
2021/07/21 01:06:05;;;;;;;;;;;22.30;71.60;22.50;99691.00;;;;338499;28;90156;-91